Time;durP1;ratioP1;P1;durP2;ratioP2;P2;SDS_P1;SDS_P2;PMS_P1;PMS_P2;Temp;Humidity;BMP_temperature;BMP_pressure;BME280_temperature;BME280_humidity;BME280_pressure;Samples;Min_cycle;Max_cycle;Signal;HPM_P1;HPM_P2
2021/07/27 00:01:59;;;;;;;15.63;12.03;;;;;;;;;;5094183;28;20229;-84
2021/07/27 00:04:27;;;;;;;15.67;11.87;;;;;;;;;;5093699;28;20194;-84
2021/07/27 00:06:54;;;;;;;16.50;11.43;;;;;;;;;;5094400;28;20222;-84
2021/07/27 00:09:21;;;;;;;17.07;11.50;;;;;;;;;;5094813;28;20249;-84
2021/07/27 00:11:49;;;;;;;13.67;11.50;;;;;;;;;;5094274;28;20226;-84
2021/07/27 00:14:17;;;;;;;17.33;11.90;;;;;;;;;;5092580;28;20294;-84
2021/07/27 00:16:44;;;;;;;15.57;11.60;;;;;;;;;;5106011;28;20640;-84
2021/07/27 00:19:11;;;;;;;14.70;11.87;;;;;;;;;;5112803;28;20290;-83
2021/07/27 00:21:38;;;;;;;16.47;11.90;;;;;;;;;;5112679;28;20212;-84
2021/07/27 00:24:06;;;;;;;14.73;11.83;;;;;;;;;;5112871;28;20285;-84
2021/07/27 00:26:34;;;;;;;14.60;11.57;;;;;;;;;;5112933;28;20222;-83
2021/07/27 00:29:04;;;;;;;17.23;12.33;;;;;;;;;;5112650;28;20243;-84
2021/07/27 00:31:31;;;;;;;16.33;12.40;;;;;;;;;;5112657;28;20273;-83
2021/07/27 00:33:58;;;;;;;15.07;11.33;;;;;;;;;;5112759;28;20747;-84
2021/07/27 00:36:25;;;;;;;15.57;12.13;;;;;;;;;;5112942;28;20232;-84
2021/07/27 00:38:52;;;;;;;19.30;11.43;;;;;;;;;;5112395;28;20284;-84
2021/07/27 00:41:20;;;;;;;17.37;12.30;;;;;;;;;;5112369;28;20197;-84
2021/07/27 00:43:47;;;;;;;14.17;11.40;;;;;;;;;;5112249;28;20313;-84
2021/07/27 00:46:16;;;;;;;15.73;12.43;;;;;;;;;;5112268;28;20225;-84
2021/07/27 00:48:43;;;;;;;15.80;12.23;;;;;;;;;;5112533;28;20285;-84
2021/07/27 00:51:10;;;;;;;16.80;12.43;;;;;;;;;;5112685;28;20237;-83
2021/07/27 00:53:38;;;;;;;17.40;12.40;;;;;;;;;;5112300;28;20201;-84
2021/07/27 00:56:06;;;;;;;18.63;13.27;;;;;;;;;;5112723;28;20232;-84
2021/07/27 00:58:33;;;;;;;18.50;12.93;;;;;;;;;;5112434;28;20281;-84
2021/07/27 01:01:00;;;;;;;18.23;12.53;;;;;;;;;;5112392;28;20673;-83
2021/07/27 01:03:29;;;;;;;21.00;12.93;;;;;;;;;;5112417;28;20729;-83
2021/07/27 01:05:56;;;;;;;23.47;13.20;;;;;;;;;;5112669;28;20197;-84
2021/07/27 01:08:23;;;;;;;17.93;12.27;;;;;;;;;;5111745;28;20314;-83
2021/07/27 01:10:51;;;;;;;15.13;12.60;;;;;;;;;;5112726;28;20284;-83
2021/07/27 01:13:18;;;;;;;17.30;13.10;;;;;;;;;;5112532;28;20197;-83
2021/07/27 01:15:45;;;;;;;16.00;12.67;;;;;;;;;;5112274;28;20673;-84
2021/07/27 01:18:20;;;;;;;18.67;12.20;;;;;;;;;;5112343;28;20201;-83
2021/07/27 01:37:25;;;;;;;16.33;12.53;;;;;;;;;;5112561;28;20189;-83
2021/07/27 01:37:42;;;;;;;17.93;13.50;;;;;;;;;;5111932;28;20240;-83
2021/07/27 01:40:13;;;;;;;17.17;12.67;;;;;;;;;;5112333;28;20208;-83
2021/07/27 01:42:40;;;;;;;18.37;13.27;;;;;;;;;;5112010;28;20190;-83
2021/07/27 01:45:19;;;;;;;17.23;12.47;;;;;;;;;;5111918;28;20233;-83
2021/07/27 01:47:46;;;;;;;18.10;13.67;;;;;;;;;;5111997;28;20217;-83
2021/07/27 01:50:15;;;;;;;17.10;12.07;;;;;;;;;;5112080;28;20293;-83
2021/07/27 01:52:46;;;;;;;17.37;13.07;;;;;;;;;;5115303;28;20204;-83
2021/07/27 01:55:18;;;;;;;17.00;12.83;;;;;;;;;;5095418;28;20249;-83
2021/07/27 01:57:46;;;;;;;17.97;13.50;;;;;;;;;;5095234;28;20204;-83
2021/07/27 02:00:13;;;;;;;19.10;12.80;;;;;;;;;;5095208;28;20285;-83
2021/07/27 02:02:40;;;;;;;19.50;13.13;;;;;;;;;;5095142;28;20273;-83
2021/07/27 02:05:09;;;;;;;17.63;13.50;;;;;;;;;;5095347;28;20285;-84
2021/07/27 02:07:37;;;;;;;18.47;13.17;;;;;;;;;;5094680;28;20214;-83
2021/07/27 02:10:08;;;;;;;15.70;12.40;;;;;;;;;;5095176;28;20214;-83
2021/07/27 02:12:49;;;;;;;17.03;13.40;;;;;;;;;;5095199;28;20203;-83
2021/07/27 02:15:17;;;;;;;20.83;12.70;;;;;;;;;;5094765;28;20670;-83
2021/07/27 02:17:44;;;;;;;20.27;13.70;;;;;;;;;;5103474;28;20647;-83
2021/07/27 02:20:13;;;;;;;17.27;13.13;;;;;;;;;;5115027;28;20225;-83
2021/07/27 02:22:40;;;;;;;16.83;12.37;;;;;;;;;;5115200;28;20205;-83
2021/07/27 02:25:08;;;;;;;17.50;13.33;;;;;;;;;;5114828;28;20225;-83
2021/07/27 02:27:36;;;;;;;19.30;13.50;;;;;;;;;;5114406;28;20253;-83
2021/07/27 02:30:06;;;;;;;16.23;13.07;;;;;;;;;;5114992;28;20233;-84
2021/07/27 02:32:33;;;;;;;18.27;13.20;;;;;;;;;;5115061;28;20258;-83
2021/07/27 02:35:00;;;;;;;15.47;12.57;;;;;;;;;;5115064;28;20226;-83
2021/07/27 02:37:28;;;;;;;18.43;12.90;;;;;;;;;;5115209;28;20277;-83
2021/07/27 02:39:55;;;;;;;18.60;13.33;;;;;;;;;;5114721;28;20285;-83
2021/07/27 02:42:23;;;;;;;19.67;13.47;;;;;;;;;;5114631;28;20193;-83
2021/07/27 02:44:52;;;;;;;17.00;13.00;;;;;;;;;;5114392;28;20233;-83
2021/07/27 02:47:19;;;;;;;16.43;13.03;;;;;;;;;;5115013;28;20225;-83
2021/07/27 02:49:46;;;;;;;18.23;13.03;;;;;;;;;;5114193;28;20288;-83
2021/07/27 02:52:14;;;;;;;17.23;13.03;;;;;;;;;;5114498;28;20705;-83
2021/07/27 02:54:42;;;;;;;15.60;13.20;;;;;;;;;;5114841;28;20198;-83
2021/07/27 02:57:09;;;;;;;19.17;12.80;;;;;;;;;;5114599;28;20791;-83
2021/07/27 02:59:36;;;;;;;19.57;13.40;;;;;;;;;;5114527;28;20239;-83
2021/07/27 03:02:05;;;;;;;19.07;13.47;;;;;;;;;;5114492;28;20197;-83
2021/07/27 03:04:32;;;;;;;20.77;13.67;;;;;;;;;;5114016;28;20220;-83
2021/07/27 03:07:00;;;;;;;17.13;13.00;;;;;;;;;;5114218;28;20293;-83
2021/07/27 03:09:29;;;;;;;19.47;14.00;;;;;;;;;;5114246;28;20249;-83
2021/07/27 03:11:56;;;;;;;17.40;13.80;;;;;;;;;;5114317;28;20556;-83
2021/07/27 03:14:23;;;;;;;16.83;13.77;;;;;;;;;;5114172;28;20328;-82
2021/07/27 03:16:50;;;;;;;18.47;13.90;;;;;;;;;;5114409;28;20224;-84
2021/07/27 03:19:19;;;;;;;20.37;14.00;;;;;;;;;;5113811;28;20229;-83
2021/07/27 03:21:47;;;;;;;17.50;14.27;;;;;;;;;;5114058;28;20302;-83
2021/07/27 03:24:14;;;;;;;19.70;14.30;;;;;;;;;;5114028;28;20301;-83
2021/07/27 03:26:41;;;;;;;20.10;14.60;;;;;;;;;;5114080;28;21059;-83
2021/07/27 03:29:08;;;;;;;18.23;14.50;;;;;;;;;;5113866;28;20684;-83
2021/07/27 03:31:36;;;;;;;18.43;14.30;;;;;;;;;;5113701;28;20246;-82
2021/07/27 03:34:03;;;;;;;19.43;14.50;;;;;;;;;;5113850;28;20280;-82
2021/07/27 03:36:32;;;;;;;17.80;14.93;;;;;;;;;;5113983;28;20229;-83
2021/07/27 03:38:59;;;;;;;21.30;15.10;;;;;;;;;;5113606;28;20662;-83
2021/07/27 03:41:26;;;;;;;18.67;14.60;;;;;;;;;;5113576;28;20277;-83
2021/07/27 03:43:53;;;;;;;19.57;15.47;;;;;;;;;;5113568;28;20239;-82
2021/07/27 03:46:21;;;;;;;19.60;14.13;;;;;;;;;;5113488;28;20285;-82
2021/07/27 03:48:49;;;;;;;17.07;14.73;;;;;;;;;;5113432;28;20316;-83
2021/07/27 03:51:16;;;;;;;19.93;15.07;;;;;;;;;;5113466;28;20193;-82
2021/07/27 03:53:45;;;;;;;19.13;15.00;;;;;;;;;;5114054;28;20288;-82
2021/07/27 03:56:13;;;;;;;20.93;14.97;;;;;;;;;;5113914;27;20244;-82
2021/07/27 03:58:43;;;;;;;18.30;15.03;;;;;;;;;;5113327;28;20288;-82
2021/07/27 04:01:11;;;;;;;20.10;15.37;;;;;;;;;;5113523;28;20196;-82
2021/07/27 04:03:38;;;;;;;20.20;14.67;;;;;;;;;;5113413;28;20205;-81
2021/07/27 04:06:06;;;;;;;18.47;15.50;;;;;;;;;;5113142;28;20201;-82
2021/07/27 04:08:33;;;;;;;20.00;15.33;;;;;;;;;;5113370;28;20275;-82
2021/07/27 04:11:05;;;;;;;22.43;15.50;;;;;;;;;;5112977;28;20636;-82
2021/07/27 04:13:33;;;;;;;21.80;15.47;;;;;;;;;;5113069;28;20240;-82
2021/07/27 04:16:01;;;;;;;21.27;15.57;;;;;;;;;;5113113;28;20201;-82
2021/07/27 04:18:29;;;;;;;20.03;15.77;;;;;;;;;;5112924;28;20198;-82
2021/07/27 04:20:56;;;;;;;20.80;15.63;;;;;;;;;;5112719;28;20213;-82
2021/07/27 04:23:24;;;;;;;20.73;15.67;;;;;;;;;;5113149;28;20280;-82
2021/07/27 04:25:51;;;;;;;22.17;15.70;;;;;;;;;;5112889;28;20689;-82
2021/07/27 04:28:20;;;;;;;20.53;15.83;;;;;;;;;;5112670;28;20308;-82
2021/07/27 04:30:47;;;;;;;23.03;16.37;;;;;;;;;;5112822;28;20259;-82
2021/07/27 04:33:14;;;;;;;19.60;15.17;;;;;;;;;;5112550;28;20685;-82
2021/07/27 04:35:42;;;;;;;21.93;16.20;;;;;;;;;;5112938;28;20229;-82
2021/07/27 04:38:09;;;;;;;22.97;16.77;;;;;;;;;;5112679;28;20273;-82
2021/07/27 04:40:36;;;;;;;22.83;16.00;;;;;;;;;;5112934;28;20277;-82
2021/07/27 04:43:03;;;;;;;21.87;15.67;;;;;;;;;;5112852;28;20325;-82
2021/07/27 04:45:32;;;;;;;20.27;15.90;;;;;;;;;;5112386;28;20274;-82
2021/07/27 04:47:59;;;;;;;22.10;16.60;;;;;;;;;;5112325;28;20718;-82
2021/07/27 04:50:26;;;;;;;18.87;16.03;;;;;;;;;;5112815;28;20229;-82
2021/07/27 04:52:59;;;;;;;24.13;16.30;;;;;;;;;;5112664;28;20237;-82
2021/07/27 04:55:26;;;;;;;21.87;16.50;;;;;;;;;;5112949;28;20267;-82
2021/07/27 04:57:53;;;;;;;24.27;16.13;;;;;;;;;;5112416;28;20684;-82
2021/07/27 05:00:22;;;;;;;21.37;16.73;;;;;;;;;;5112265;28;20232;-82
2021/07/27 05:02:50;;;;;;;20.83;16.23;;;;;;;;;;5112723;28;20627;-82
2021/07/27 05:05:18;;;;;;;18.70;16.20;;;;;;;;;;5111749;28;20204;-82
2021/07/27 05:07:45;;;;;;;24.83;16.00;;;;;;;;;;5112310;28;20562;-82
2021/07/27 05:10:12;;;;;;;21.70;16.00;;;;;;;;;;5112405;28;20196;-82
2021/07/27 05:12:40;;;;;;;22.70;16.73;;;;;;;;;;5112453;28;20558;-82
2021/07/27 05:15:08;;;;;;;21.37;16.37;;;;;;;;;;5112354;28;20284;-82
2021/07/27 05:17:35;;;;;;;22.47;16.23;;;;;;;;;;5112367;28;20194;-82
2021/07/27 05:20:05;;;;;;;20.73;16.10;;;;;;;;;;5112437;28;20654;-82
2021/07/27 05:22:32;;;;;;;20.97;15.40;;;;;;;;;;5112165;28;20590;-82
2021/07/27 05:24:59;;;;;;;21.30;16.03;;;;;;;;;;5112525;28;20289;-82
2021/07/27 05:27:27;;;;;;;19.43;15.30;;;;;;;;;;5115616;28;20286;-82
2021/07/27 05:29:54;;;;;;;24.93;16.97;;;;;;;;;;5115921;28;20260;-83
2021/07/27 05:32:22;;;;;;;21.53;15.83;;;;;;;;;;5116177;28;20435;-82
2021/07/27 05:34:49;;;;;;;20.03;15.70;;;;;;;;;;5116099;27;20202;-82
2021/07/27 05:37:18;;;;;;;21.43;15.97;;;;;;;;;;5116092;28;20288;-82
2021/07/27 05:39:46;;;;;;;19.77;15.60;;;;;;;;;;5116111;28;20276;-82
2021/07/27 05:42:13;;;;;;;22.07;15.83;;;;;;;;;;5116171;28;20197;-82
2021/07/27 05:44:40;;;;;;;19.63;15.60;;;;;;;;;;5115413;28;20237;-82
2021/07/27 05:47:08;;;;;;;18.83;15.77;;;;;;;;;;5115802;28;20248;-82
2021/07/27 05:49:37;;;;;;;22.97;16.97;;;;;;;;;;5115841;28;20225;-82
2021/07/27 05:52:04;;;;;;;24.03;16.60;;;;;;;;;;5116090;28;20233;-82
2021/07/27 05:54:33;;;;;;;20.47;16.07;;;;;;;;;;5115729;28;20284;-82
2021/07/27 05:57:00;;;;;;;20.17;15.23;;;;;;;;;;5116002;28;20285;-82
2021/07/27 05:59:28;;;;;;;19.77;16.53;;;;;;;;;;5115219;28;20197;-82
2021/07/27 06:01:55;;;;;;;23.20;16.23;;;;;;;;;;5115620;28;20277;-82
2021/07/27 06:04:36;;;;;;;20.43;16.07;;;;;;;;;;5115768;28;20206;-82
2021/07/27 06:07:03;;;;;;;21.37;16.03;;;;;;;;;;5115800;28;20193;-82
2021/07/27 06:09:31;;;;;;;20.97;15.73;;;;;;;;;;5115593;28;20344;-82
2021/07/27 06:11:59;;;;;;;23.63;16.67;;;;;;;;;;5115483;28;20289;-82
2021/07/27 06:14:27;;;;;;;20.57;15.87;;;;;;;;;;5115429;28;20248;-82
2021/07/27 06:16:54;;;;;;;21.20;16.40;;;;;;;;;;5115567;28;20198;-82
2021/07/27 06:19:23;;;;;;;22.37;16.53;;;;;;;;;;5115380;28;20356;-82
2021/07/27 06:21:50;;;;;;;19.63;15.70;;;;;;;;;;5115500;28;20247;-82
2021/07/27 06:24:17;;;;;;;20.83;15.73;;;;;;;;;;5115537;28;20239;-82
2021/07/27 06:26:45;;;;;;;18.50;15.20;;;;;;;;;;5115057;28;20208;-82
2021/07/27 06:29:14;;;;;;;20.60;16.17;;;;;;;;;;5114894;28;20656;-82
2021/07/27 06:31:41;;;;;;;22.17;15.47;;;;;;;;;;5114902;28;20258;-82
2021/07/27 06:34:09;;;;;;;20.17;15.77;;;;;;;;;;5115042;28;20277;-82
2021/07/27 06:36:36;;;;;;;19.60;16.40;;;;;;;;;;5114645;28;20264;-82
2021/07/27 06:39:03;;;;;;;22.20;17.20;;;;;;;;;;5115164;28;20279;-82
2021/07/27 06:41:31;;;;;;;20.43;16.80;;;;;;;;;;5114502;28;20235;-82
2021/07/27 06:43:58;;;;;;;23.83;17.33;;;;;;;;;;5114728;28;20272;-82
2021/07/27 06:46:28;;;;;;;20.90;16.83;;;;;;;;;;5114725;28;20190;-82
2021/07/27 06:48:56;;;;;;;21.57;16.57;;;;;;;;;;5114872;28;20218;-82
2021/07/27 06:51:23;;;;;;;23.30;17.27;;;;;;;;;;5114971;28;20288;-83
2021/07/27 06:53:50;;;;;;;23.93;16.73;;;;;;;;;;5114663;27;20236;-82
2021/07/27 06:56:18;;;;;;;24.83;17.97;;;;;;;;;;5114566;28;20545;-82
2021/07/27 06:58:46;;;;;;;23.07;16.37;;;;;;;;;;5114602;28;20206;-82
2021/07/27 07:01:14;;;;;;;20.93;16.70;;;;;;;;;;5114656;28;20189;-82
2021/07/27 07:03:43;;;;;;;23.57;18.00;;;;;;;;;;5114284;28;20269;-82
2021/07/27 07:06:11;;;;;;;22.90;16.93;;;;;;;;;;5114463;28;20285;-82
2021/07/27 07:08:39;;;;;;;23.17;17.17;;;;;;;;;;5114285;28;20228;-82
2021/07/27 07:11:07;;;;;;;24.70;17.40;;;;;;;;;;5114388;28;20277;-82
2021/07/27 07:13:34;;;;;;;23.00;17.87;;;;;;;;;;5114087;28;20716;-82
2021/07/27 07:16:03;;;;;;;24.17;17.57;;;;;;;;;;5114475;27;20289;-83
2021/07/27 07:18:30;;;;;;;26.37;17.83;;;;;;;;;;5114079;28;20266;-82
2021/07/27 07:20:59;;;;;;;25.40;17.93;;;;;;;;;;5114028;28;20242;-82
2021/07/27 07:23:26;;;;;;;24.83;17.53;;;;;;;;;;5114212;28;20314;-82
2021/07/27 07:25:54;;;;;;;22.90;16.70;;;;;;;;;;5113750;28;20798;-82
2021/07/27 07:28:21;;;;;;;23.33;18.00;;;;;;;;;;5113845;28;20285;-82
2021/07/27 07:30:49;;;;;;;24.53;17.17;;;;;;;;;;5114161;28;20316;-82
2021/07/27 07:33:16;;;;;;;21.73;17.23;;;;;;;;;;5093263;28;20738;-82
2021/07/27 07:35:43;;;;;;;23.10;17.47;;;;;;;;;;5093733;28;20229;-82
2021/07/27 07:38:12;;;;;;;25.37;17.83;;;;;;;;;;5093388;28;20285;-83
2021/07/27 07:40:39;;;;;;;25.60;17.50;;;;;;;;;;5093103;28;20290;-83
2021/07/27 07:43:06;;;;;;;21.53;16.97;;;;;;;;;;5093162;28;20320;-82
2021/07/27 07:45:33;;;;;;;23.77;17.67;;;;;;;;;;5092374;28;20209;-83
2021/07/27 07:48:01;;;;;;;21.20;16.93;;;;;;;;;;5092893;28;20225;-82
2021/07/27 07:50:30;;;;;;;26.10;17.63;;;;;;;;;;5092383;28;20264;-82
2021/07/27 07:52:58;;;;;;;23.17;17.20;;;;;;;;;;5092455;28;20721;-83
2021/07/27 07:55:27;;;;;;;24.00;17.47;;;;;;;;;;5092909;28;20199;-82
2021/07/27 07:57:54;;;;;;;21.00;16.70;;;;;;;;;;5092859;28;20708;-82
2021/07/27 08:00:23;;;;;;;24.02;16.65;;;;;;;;;;5092939;28;20285;-82
2021/07/27 08:02:50;;;;;;;21.73;16.57;;;;;;;;;;5093077;28;20198;-82
2021/07/27 08:05:18;;;;;;;23.97;16.77;;;;;;;;;;5093439;28;20537;-82
2021/07/27 08:07:45;;;;;;;23.70;18.00;;;;;;;;;;5092750;28;20293;-81
2021/07/27 08:10:13;;;;;;;23.07;16.60;;;;;;;;;;5092620;28;20313;-82
2021/07/27 08:12:43;;;;;;;25.83;16.80;;;;;;;;;;5092596;28;20198;-82
2021/07/27 08:15:11;;;;;;;23.40;17.03;;;;;;;;;;5092946;28;20271;-82
2021/07/27 08:17:38;;;;;;;20.23;15.93;;;;;;;;;;5092662;28;20198;-82
2021/07/27 08:20:06;;;;;;;22.83;16.97;;;;;;;;;;5092844;28;20230;-82
2021/07/27 08:22:34;;;;;;;21.20;16.03;;;;;;;;;;5092474;28;20202;-82
2021/07/27 08:25:02;;;;;;;23.13;15.97;;;;;;;;;;5092864;28;20317;-82
2021/07/27 08:27:29;;;;;;;20.70;15.70;;;;;;;;;;5092505;28;20288;-82
2021/07/27 08:29:58;;;;;;;21.70;15.80;;;;;;;;;;5092254;28;20313;-82
2021/07/27 08:32:25;;;;;;;22.17;15.40;;;;;;;;;;5097423;28;20300;-82
2021/07/27 08:34:52;;;;;;;21.05;14.60;;;;;;;;;;5113085;28;20286;-82
2021/07/27 08:37:20;;;;;;;23.77;16.73;;;;;;;;;;5112520;28;20268;-82
2021/07/27 08:39:47;;;;;;;20.02;16.02;;;;;;;;;;5112999;28;20285;-83
2021/07/27 08:42:16;;;;;;;21.27;14.85;;;;;;;;;;5112992;28;20200;-83
2021/07/27 08:44:44;;;;;;;20.70;15.43;;;;;;;;;;5112541;28;20233;-83
2021/07/27 08:47:15;;;;;;;21.52;15.20;;;;;;;;;;5111965;28;20297;-82
2021/07/27 08:49:43;;;;;;;20.88;14.82;;;;;;;;;;5112954;28;20247;-82
2021/07/27 08:52:10;;;;;;;19.58;13.80;;;;;;;;;;5112439;28;20293;-82
2021/07/27 08:54:41;;;;;;;19.05;14.02;;;;;;;;;;5112949;28;20281;-82
2021/07/27 08:57:13;;;;;;;21.35;14.02;;;;;;;;;;5112859;28;20193;-82
2021/07/27 09:00:15;;;;;;;18.60;14.55;;;;;;;;;;5112890;28;20189;-81
2021/07/27 09:02:44;;;;;;;16.45;13.65;;;;;;;;;;5116583;28;20205;-81
2021/07/27 09:05:12;;;;;;;19.40;12.48;;;;;;;;;;5116711;28;20255;-81
2021/07/27 09:07:40;;;;;;;17.20;12.60;;;;;;;;;;5116597;28;20233;-81
2021/07/27 09:10:14;;;;;;;17.60;12.27;;;;;;;;;;5116688;28;20317;-81
2021/07/27 09:12:52;;;;;;;17.27;11.70;;;;;;;;;;5116557;28;20240;-82
2021/07/27 09:15:21;;;;;;;13.95;11.32;;;;;;;;;;5116438;28;20193;-81
2021/07/27 09:17:53;;;;;;;16.05;11.60;;;;;;;;;;5116611;27;20210;-82
2021/07/27 09:20:35;;;;;;;16.13;11.73;;;;;;;;;;5116336;28;20280;-82
2021/07/27 09:23:02;;;;;;;14.32;11.57;;;;;;;;;;5116378;28;20236;-83
2021/07/27 09:25:31;;;;;;;14.43;10.82;;;;;;;;;;5116321;28;20201;-81
2021/07/27 09:28:02;;;;;;;13.23;10.73;;;;;;;;;;5116367;28;20645;-82
2021/07/27 09:30:30;;;;;;;14.43;10.25;;;;;;;;;;5116232;28;20221;-82
2021/07/27 09:32:59;;;;;;;14.68;10.23;;;;;;;;;;5116380;28;20197;-81
2021/07/27 09:35:27;;;;;;;12.30;10.27;;;;;;;;;;5116147;27;20210;-82
2021/07/27 09:38:08;;;;;;;12.65;10.50;;;;;;;;;;5116352;28;20198;-82
2021/07/27 09:40:36;;;;;;;12.23;9.43;;;;;;;;;;5117054;28;20201;-81
2021/07/27 09:43:04;;;;;;;10.13;8.25;;;;;;;;;;5116961;28;20229;-81
2021/07/27 09:45:32;;;;;;;10.82;8.98;;;;;;;;;;5116793;28;20738;-82
2021/07/27 09:48:00;;;;;;;12.02;9.25;;;;;;;;;;5116790;28;20263;-82
2021/07/27 09:50:28;;;;;;;12.13;8.98;;;;;;;;;;5116661;28;20217;-82
2021/07/27 09:52:55;;;;;;;11.63;8.68;;;;;;;;;;5116740;28;20229;-82
2021/07/27 09:55:23;;;;;;;9.95;8.18;;;;;;;;;;5117038;28;20266;-82
2021/07/27 09:57:52;;;;;;;10.88;8.65;;;;;;;;;;5116079;28;20212;-81
2021/07/27 10:00:19;;;;;;;9.70;8.18;;;;;;;;;;5116559;28;20204;-82
2021/07/27 10:02:48;;;;;;;8.77;7.50;;;;;;;;;;5097251;28;20210;-82
2021/07/27 10:05:22;;;;;;;9.43;6.13;;;;;;;;;;5096013;28;20285;-83
2021/07/27 10:07:59;;;;;;;6.53;5.72;;;;;;;;;;5096323;28;20241;-82
2021/07/27 10:10:40;;;;;;;6.43;5.07;;;;;;;;;;5096025;28;20731;-82
2021/07/27 10:13:08;;;;;;;6.00;5.07;;;;;;;;;;5095611;28;20206;-82
2021/07/27 10:15:42;;;;;;;7.95;5.78;;;;;;;;;;5096141;28;20198;-82
2021/07/27 10:18:09;;;;;;;7.03;5.68;;;;;;;;;;5095412;28;20198;-82
2021/07/27 10:20:38;;;;;;;8.18;5.72;;;;;;;;;;5095526;28;20240;-82
2021/07/27 10:23:15;;;;;;;7.80;6.22;;;;;;;;;;5096112;28;20252;-82
2021/07/27 10:25:54;;;;;;;8.43;6.95;;;;;;;;;;5095895;28;20194;-82
2021/07/27 10:28:25;;;;;;;9.30;6.75;;;;;;;;;;5094647;28;20739;-82
2021/07/27 10:31:02;;;;;;;7.18;6.18;;;;;;;;;;5095828;28;20254;-82
2021/07/27 10:33:30;;;;;;;9.20;6.72;;;;;;;;;;5095357;28;20233;-82
2021/07/27 10:35:58;;;;;;;8.70;6.90;;;;;;;;;;5095886;28;20202;-83
2021/07/27 10:38:36;;;;;;;8.38;6.63;;;;;;;;;;5096087;28;20206;-83
2021/07/27 10:41:14;;;;;;;7.20;6.40;;;;;;;;;;5095717;28;20273;-83
2021/07/27 10:43:41;;;;;;;8.00;6.15;;;;;;;;;;5095545;28;20317;-82
2021/07/27 10:46:10;;;;;;;6.72;5.78;;;;;;;;;;5095391;28;20289;-83
2021/07/27 10:48:38;;;;;;;8.68;5.93;;;;;;;;;;5094965;28;20194;-82
2021/07/27 10:51:07;;;;;;;8.40;6.28;;;;;;;;;;5094494;28;20229;-82
2021/07/27 10:53:35;;;;;;;7.40;6.38;;;;;;;;;;5094415;28;20259;-82
2021/07/27 10:56:03;;;;;;;6.50;5.00;;;;;;;;;;5094574;28;20277;-83
2021/07/27 10:58:31;;;;;;;6.50;4.95;;;;;;;;;;5095686;28;20248;-83
2021/07/27 11:01:08;;;;;;;5.60;4.57;;;;;;;;;;5095769;28;20205;-83
2021/07/27 11:03:35;;;;;;;7.60;4.78;;;;;;;;;;5095081;28;20202;-83
2021/07/27 11:06:03;;;;;;;4.93;4.38;;;;;;;;;;5095612;28;20247;-83
2021/07/27 11:08:31;;;;;;;6.22;4.20;;;;;;;;;;5096248;28;20222;-83
2021/07/27 11:11:06;;;;;;;4.10;3.70;;;;;;;;;;5096287;28;20252;-83
2021/07/27 11:13:33;;;;;;;8.73;4.18;;;;;;;;;;5095703;28;20202;-83
2021/07/27 11:16:01;;;;;;;4.97;3.88;;;;;;;;;;5096374;28;20206;-83
2021/07/27 11:18:29;;;;;;;4.55;3.80;;;;;;;;;;5093917;28;20569;-83
2021/07/27 11:20:57;;;;;;;6.75;4.00;;;;;;;;;;5094285;28;20233;-83
2021/07/27 11:23:24;;;;;;;4.80;3.95;;;;;;;;;;5093176;28;20194;-83
2021/07/27 11:25:54;;;;;;;4.65;3.85;;;;;;;;;;5094711;28;20555;-83
2021/07/27 11:28:22;;;;;;;6.70;4.45;;;;;;;;;;5094949;28;20198;-83
2021/07/27 11:30:50;;;;;;;7.07;4.57;;;;;;;;;;5093015;28;20261;-83
2021/07/27 11:33:18;;;;;;;5.68;4.60;;;;;;;;;;5093594;28;20267;-83
2021/07/27 11:35:46;;;;;;;5.07;4.00;;;;;;;;;;5094079;28;20651;-83
2021/07/27 11:38:22;;;;;;;4.88;3.95;;;;;;;;;;5094103;28;20202;-82
2021/07/27 11:40:50;;;;;;;5.25;3.55;;;;;;;;;;5093389;28;20202;-83
2021/07/27 11:43:31;;;;;;;3.95;3.28;;;;;;;;;;5094426;28;20238;-83
2021/07/27 11:46:05;;;;;;;4.97;3.28;;;;;;;;;;5094810;28;20204;-84
2021/07/27 11:48:34;;;;;;;3.65;2.70;;;;;;;;;;5094644;28;20229;-83
2021/07/27 11:51:01;;;;;;;4.15;3.35;;;;;;;;;;5093324;28;20221;-83
2021/07/27 11:53:31;;;;;;;3.35;2.92;;;;;;;;;;5093138;28;20194;-83
2021/07/27 11:55:59;;;;;;;4.10;3.10;;;;;;;;;;5093422;28;20267;-83
2021/07/27 11:58:28;;;;;;;6.03;2.88;;;;;;;;;;5092758;28;20203;-84
2021/07/27 12:00:56;;;;;;;3.47;3.05;;;;;;;;;;5092959;28;20194;-83
2021/07/27 12:03:24;;;;;;;3.53;3.08;;;;;;;;;;5100861;28;20212;-83
2021/07/27 12:05:53;;;;;;;4.43;2.85;;;;;;;;;;5113342;28;20613;-83
2021/07/27 12:08:20;;;;;;;2.97;2.58;;;;;;;;;;5113132;28;20594;-83
2021/07/27 12:10:47;;;;;;;3.15;2.78;;;;;;;;;;5113375;28;20225;-83
2021/07/27 12:13:15;;;;;;;2.85;2.65;;;;;;;;;;5113336;28;20190;-83
2021/07/27 12:15:46;;;;;;;4.13;2.70;;;;;;;;;;5113011;28;20198;-83
2021/07/27 12:18:14;;;;;;;4.53;2.50;;;;;;;;;;5112834;28;20197;-83
2021/07/27 12:20:42;;;;;;;3.55;2.58;;;;;;;;;;5113144;28;20202;-84
2021/07/27 12:23:09;;;;;;;3.05;2.72;;;;;;;;;;5113385;28;20206;-83
2021/07/27 12:25:36;;;;;;;3.85;2.80;;;;;;;;;;5112965;28;20229;-83
2021/07/27 12:28:03;;;;;;;4.22;2.80;;;;;;;;;;5113209;28;20197;-83
2021/07/27 12:30:31;;;;;;;5.07;2.20;;;;;;;;;;5112375;28;20229;-84
2021/07/27 12:32:59;;;;;;;3.45;2.30;;;;;;;;;;5112982;28;20667;-84
2021/07/27 12:35:26;;;;;;;3.97;2.42;;;;;;;;;;5112482;28;20581;-82
2021/07/27 12:37:54;;;;;;;2.67;2.30;;;;;;;;;;5112763;28;20246;-84
2021/07/27 12:40:21;;;;;;;2.25;2.00;;;;;;;;;;5112927;28;20229;-84
2021/07/27 12:42:48;;;;;;;2.45;2.10;;;;;;;;;;5112571;28;20209;-84
2021/07/27 12:45:17;;;;;;;3.10;2.17;;;;;;;;;;5112619;28;20197;-84
2021/07/27 12:47:45;;;;;;;2.92;2.40;;;;;;;;;;5111395;28;20250;-84
2021/07/27 12:50:15;;;;;;;3.30;2.25;;;;;;;;;;5112437;28;20677;-84
2021/07/27 12:52:42;;;;;;;3.22;2.40;;;;;;;;;;5112389;28;20202;-84
2021/07/27 12:55:10;;;;;;;3.08;2.40;;;;;;;;;;5113103;28;20349;-84
2021/07/27 12:57:38;;;;;;;3.08;2.05;;;;;;;;;;5112746;28;20193;-84
2021/07/27 13:00:06;;;;;;;2.30;2.10;;;;;;;;;;5112766;28;20606;-84
2021/07/27 13:02:33;;;;;;;3.63;2.30;;;;;;;;;;5113077;28;20258;-84
2021/07/27 13:05:00;;;;;;;2.70;2.08;;;;;;;;;;5112665;28;20266;-83
2021/07/27 13:07:29;;;;;;;2.67;2.25;;;;;;;;;;5112603;28;20197;-84
2021/07/27 13:09:58;;;;;;;4.25;1.77;;;;;;;;;;5112540;28;20206;-84
2021/07/27 13:12:25;;;;;;;2.17;1.98;;;;;;;;;;5112046;28;20225;-83
2021/07/27 13:14:52;;;;;;;2.70;1.90;;;;;;;;;;5112696;28;20247;-84
2021/07/27 13:17:19;;;;;;;3.30;2.00;;;;;;;;;;5112606;28;20197;-84
2021/07/27 13:19:47;;;;;;;2.08;1.60;;;;;;;;;;5112152;28;20712;-84
2021/07/27 13:22:14;;;;;;;2.00;1.63;;;;;;;;;;5112516;28;20190;-84
2021/07/27 13:24:43;;;;;;;1.67;1.58;;;;;;;;;;5112620;28;20229;-83
2021/07/27 13:27:10;;;;;;;2.38;1.70;;;;;;;;;;5112309;28;20229;-84
2021/07/27 13:29:39;;;;;;;2.40;1.92;;;;;;;;;;5112349;28;20605;-84
2021/07/27 13:32:06;;;;;;;2.45;2.00;;;;;;;;;;5112344;28;20221;-83
2021/07/27 13:34:34;;;;;;;3.38;2.13;;;;;;;;;;5112394;28;20237;-84
2021/07/27 13:37:02;;;;;;;3.78;2.20;;;;;;;;;;5112512;28;20209;-84
2021/07/27 13:39:29;;;;;;;3.03;2.20;;;;;;;;;;5112371;28;20202;-84
2021/07/27 13:41:58;;;;;;;2.78;2.38;;;;;;;;;;5110828;28;20263;-84
2021/07/27 13:44:25;;;;;;;2.50;2.22;;;;;;;;;;5112036;28;20271;-84
2021/07/27 13:46:53;;;;;;;2.42;2.22;;;;;;;;;;5112553;28;20237;-84
2021/07/27 13:49:21;;;;;;;2.60;2.20;;;;;;;;;;5116379;28;20205;-84
2021/07/27 13:51:48;;;;;;;3.13;2.45;;;;;;;;;;5115815;28;20225;-83
2021/07/27 13:54:15;;;;;;;2.50;2.13;;;;;;;;;;5115922;28;20243;-84
2021/07/27 13:56:42;;;;;;;3.63;2.20;;;;;;;;;;5115358;28;20202;-84
2021/07/27 13:59:11;;;;;;;2.78;2.20;;;;;;;;;;5115821;28;20197;-84
2021/07/27 14:01:38;;;;;;;3.58;2.45;;;;;;;;;;5115789;28;20247;-84
2021/07/27 14:04:05;;;;;;;3.22;2.70;;;;;;;;;;5115780;28;20274;-84
2021/07/27 14:06:33;;;;;;;4.28;2.80;;;;;;;;;;5115628;28;20194;-84
2021/07/27 14:09:00;;;;;;;2.85;2.50;;;;;;;;;;5115506;28;20214;-84
2021/07/27 14:11:27;;;;;;;3.58;2.50;;;;;;;;;;5114956;28;20275;-84
2021/07/27 14:13:55;;;;;;;2.67;2.35;;;;;;;;;;5115756;28;20612;-84
2021/07/27 14:16:23;;;;;;;3.67;2.40;;;;;;;;;;5115811;28;20293;-84
2021/07/27 14:18:51;;;;;;;3.45;2.50;;;;;;;;;;5115232;28;20727;-84
2021/07/27 14:21:18;;;;;;;5.35;2.90;;;;;;;;;;5115368;28;20197;-84
2021/07/27 14:23:47;;;;;;;3.42;2.30;;;;;;;;;;5115457;28;20284;-84
2021/07/27 14:26:14;;;;;;;2.58;2.30;;;;;;;;;;5114844;28;20292;-84
2021/07/27 14:28:42;;;;;;;2.53;2.15;;;;;;;;;;5115455;28;20262;-84
2021/07/27 14:31:09;;;;;;;2.92;2.38;;;;;;;;;;5115101;28;20305;-84
2021/07/27 14:33:38;;;;;;;2.83;2.50;;;;;;;;;;5115031;28;20194;-84
2021/07/27 14:36:06;;;;;;;5.30;2.60;;;;;;;;;;5115313;28;20744;-83
2021/07/27 14:38:33;;;;;;;2.33;2.10;;;;;;;;;;5114999;28;20224;-84
2021/07/27 14:41:00;;;;;;;3.00;2.10;;;;;;;;;;5114594;28;20202;-84
2021/07/27 14:43:28;;;;;;;2.47;1.90;;;;;;;;;;5114992;28;20274;-83
2021/07/27 14:45:55;;;;;;;2.90;1.92;;;;;;;;;;5114904;28;20190;-84
2021/07/27 14:48:24;;;;;;;2.42;2.17;;;;;;;;;;5115004;28;20245;-84